sensor_id;sensor_type;location;lat;lon;timestamp;P1;durP1;ratioP1;P2;durP2;ratioP2
8349;SDS011;60699;48.946;8.412;2023-11-21T00:01:00;2.35;;;1.90;;
8349;SDS011;60699;48.946;8.412;2023-11-21T00:03:28;4.05;;;1.80;;
8349;SDS011;60699;48.946;8.412;2023-11-21T00:05:56;2.33;;;1.90;;
8349;SDS011;60699;48.946;8.412;2023-11-21T00:08:24;2.85;;;1.30;;
8349;SDS011;60699;48.946;8.412;2023-11-21T00:10:52;1.50;;;1.40;;
8349;SDS011;60699;48.946;8.412;2023-11-21T00:13:19;2.67;;;1.63;;
8349;SDS011;60699;48.946;8.412;2023-11-21T00:15:46;2.17;;;1.50;;
8349;SDS011;60699;48.946;8.412;2023-11-21T00:18:14;1.95;;;1.40;;
8349;SDS011;60699;48.946;8.412;2023-11-21T00:20:41;6.13;;;1.67;;
8349;SDS011;60699;48.946;8.412;2023-11-21T00:23:08;2.97;;;1.63;;
8349;SDS011;60699;48.946;8.412;2023-11-21T00:25:37;2.17;;;1.70;;
8349;SDS011;60699;48.946;8.412;2023-11-21T00:28:05;7.60;;;1.60;;
8349;SDS011;60699;48.946;8.412;2023-11-21T00:30:32;3.63;;;1.77;;
8349;SDS011;60699;48.946;8.412;2023-11-21T00:32:59;3.70;;;1.42;;
8349;SDS011;60699;48.946;8.412;2023-11-21T00:35:26;3.00;;;1.70;;
8349;SDS011;60699;48.946;8.412;2023-11-21T00:37:53;1.75;;;1.65;;
8349;SDS011;60699;48.946;8.412;2023-11-21T00:40:20;1.48;;;1.38;;
8349;SDS011;60699;48.946;8.412;2023-11-21T00:42:48;2.65;;;1.45;;
8349;SDS011;60699;48.946;8.412;2023-11-21T00:45:15;3.38;;;1.45;;
8349;SDS011;60699;48.946;8.412;2023-11-21T00:47:42;5.95;;;1.70;;
8349;SDS011;60699;48.946;8.412;2023-11-21T00:50:10;1.90;;;1.40;;
8349;SDS011;60699;48.946;8.412;2023-11-21T00:52:37;2.30;;;2.10;;
8349;SDS011;60699;48.946;8.412;2023-11-21T00:55:04;1.63;;;1.35;;
8349;SDS011;60699;48.946;8.412;2023-11-21T00:57:32;3.72;;;1.58;;
8349;SDS011;60699;48.946;8.412;2023-11-21T01:00:01;1.50;;;1.40;;
8349;SDS011;60699;48.946;8.412;2023-11-21T01:02:31;2.03;;;1.73;;
8349;SDS011;60699;48.946;8.412;2023-11-21T01:05:00;5.63;;;1.75;;
8349;SDS011;60699;48.946;8.412;2023-11-21T01:07:28;1.50;;;1.40;;
8349;SDS011;60699;48.946;8.412;2023-11-21T01:09:55;1.70;;;1.60;;
8349;SDS011;60699;48.946;8.412;2023-11-21T01:12:22;2.85;;;1.40;;
8349;SDS011;60699;48.946;8.412;2023-11-21T01:14:50;1.70;;;1.60;;
8349;SDS011;60699;48.946;8.412;2023-11-21T01:17:19;2.78;;;1.40;;
8349;SDS011;60699;48.946;8.412;2023-11-21T01:19:47;2.40;;;1.60;;
8349;SDS011;60699;48.946;8.412;2023-11-21T01:22:14;4.32;;;1.75;;
8349;SDS011;60699;48.946;8.412;2023-11-21T01:24:42;1.88;;;1.70;;
8349;SDS011;60699;48.946;8.412;2023-11-21T01:27:09;5.43;;;1.65;;
8349;SDS011;60699;48.946;8.412;2023-11-21T01:29:36;1.58;;;1.45;;
8349;SDS011;60699;48.946;8.412;2023-11-21T01:32:04;2.80;;;1.33;;
8349;SDS011;60699;48.946;8.412;2023-11-21T01:34:34;2.20;;;1.42;;
8349;SDS011;60699;48.946;8.412;2023-11-21T01:37:01;1.50;;;1.40;;
8349;SDS011;60699;48.946;8.412;2023-11-21T01:39:30;4.80;;;2.20;;
8349;SDS011;60699;48.946;8.412;2023-11-21T01:41:57;2.55;;;1.40;;
8349;SDS011;60699;48.946;8.412;2023-11-21T01:44:24;1.90;;;1.27;;
8349;SDS011;60699;48.946;8.412;2023-11-21T01:46:51;1.80;;;1.70;;
8349;SDS011;60699;48.946;8.412;2023-11-21T01:49:18;3.80;;;1.50;;
8349;SDS011;60699;48.946;8.412;2023-11-21T01:51:48;1.98;;;1.77;;
8349;SDS011;60699;48.946;8.412;2023-11-21T01:54:15;2.05;;;1.55;;
8349;SDS011;60699;48.946;8.412;2023-11-21T01:56:43;4.72;;;2.05;;
8349;SDS011;60699;48.946;8.412;2023-11-21T01:59:10;1.90;;;1.50;;
8349;SDS011;60699;48.946;8.412;2023-11-21T02:01:38;1.40;;;1.30;;
8349;SDS011;60699;48.946;8.412;2023-11-21T02:04:06;2.13;;;2.00;;
8349;SDS011;60699;48.946;8.412;2023-11-21T02:06:33;1.67;;;1.58;;
8349;SDS011;60699;48.946;8.412;2023-11-21T02:09:02;2.33;;;2.05;;
8349;SDS011;60699;48.946;8.412;2023-11-21T02:11:29;2.95;;;1.60;;
8349;SDS011;60699;48.946;8.412;2023-11-21T02:13:59;3.47;;;1.50;;
8349;SDS011;60699;48.946;8.412;2023-11-21T02:16:27;2.45;;;1.50;;
8349;SDS011;60699;48.946;8.412;2023-11-21T02:18:56;1.60;;;1.50;;
8349;SDS011;60699;48.946;8.412;2023-11-21T02:21:24;2.63;;;1.40;;
8349;SDS011;60699;48.946;8.412;2023-11-21T02:23:52;1.50;;;1.40;;
8349;SDS011;60699;48.946;8.412;2023-11-21T02:26:20;1.65;;;1.55;;
8349;SDS011;60699;48.946;8.412;2023-11-21T02:28:47;1.75;;;1.40;;
8349;SDS011;60699;48.946;8.412;2023-11-21T02:31:14;1.42;;;1.33;;
8349;SDS011;60699;48.946;8.412;2023-11-21T02:33:41;1.77;;;1.67;;
8349;SDS011;60699;48.946;8.412;2023-11-21T02:36:09;2.20;;;1.30;;
8349;SDS011;60699;48.946;8.412;2023-11-21T02:38:36;1.90;;;1.60;;
8349;SDS011;60699;48.946;8.412;2023-11-21T02:41:04;1.58;;;1.48;;
8349;SDS011;60699;48.946;8.412;2023-11-21T02:43:31;1.50;;;1.35;;
8349;SDS011;60699;48.946;8.412;2023-11-21T02:45:59;1.30;;;1.20;;
8349;SDS011;60699;48.946;8.412;2023-11-21T02:48:26;1.30;;;1.20;;
8349;SDS011;60699;48.946;8.412;2023-11-21T02:50:53;3.20;;;1.45;;
8349;SDS011;60699;48.946;8.412;2023-11-21T02:53:20;1.75;;;1.60;;
8349;SDS011;60699;48.946;8.412;2023-11-21T02:55:49;1.60;;;1.50;;
8349;SDS011;60699;48.946;8.412;2023-11-21T02:58:18;1.88;;;1.52;;
8349;SDS011;60699;48.946;8.412;2023-11-21T03:00:45;1.60;;;1.40;;
8349;SDS011;60699;48.946;8.412;2023-11-21T03:03:12;3.88;;;2.90;;
8349;SDS011;60699;48.946;8.412;2023-11-21T03:05:39;3.55;;;1.23;;
8349;SDS011;60699;48.946;8.412;2023-11-21T03:08:06;1.67;;;1.40;;
8349;SDS011;60699;48.946;8.412;2023-11-21T03:10:33;2.65;;;1.50;;
8349;SDS011;60699;48.946;8.412;2023-11-21T03:13:00;2.83;;;1.45;;
8349;SDS011;60699;48.946;8.412;2023-11-21T03:15:29;2.38;;;2.17;;
8349;SDS011;60699;48.946;8.412;2023-11-21T03:17:57;1.80;;;1.48;;
8349;SDS011;60699;48.946;8.412;2023-11-21T03:20:24;1.80;;;1.67;;
8349;SDS011;60699;48.946;8.412;2023-11-21T03:22:51;5.93;;;1.90;;
8349;SDS011;60699;48.946;8.412;2023-11-21T03:25:18;3.25;;;1.60;;
8349;SDS011;60699;48.946;8.412;2023-11-21T03:27:45;5.88;;;1.77;;
8349;SDS011;60699;48.946;8.412;2023-11-21T03:30:12;1.65;;;1.55;;
8349;SDS011;60699;48.946;8.412;2023-11-21T03:32:41;1.65;;;1.52;;
8349;SDS011;60699;48.946;8.412;2023-11-21T03:35:08;2.58;;;1.45;;
8349;SDS011;60699;48.946;8.412;2023-11-21T03:37:35;4.10;;;1.55;;
8349;SDS011;60699;48.946;8.412;2023-11-21T03:40:03;1.67;;;1.58;;
8349;SDS011;60699;48.946;8.412;2023-11-21T03:42:33;2.65;;;1.20;;
8349;SDS011;60699;48.946;8.412;2023-11-21T03:45:00;1.60;;;1.38;;
8349;SDS011;60699;48.946;8.412;2023-11-21T03:47:28;1.60;;;1.50;;
8349;SDS011;60699;48.946;8.412;2023-11-21T03:49:56;1.48;;;1.38;;
8349;SDS011;60699;48.946;8.412;2023-11-21T03:52:23;2.85;;;1.30;;
8349;SDS011;60699;48.946;8.412;2023-11-21T03:54:50;2.15;;;1.42;;
8349;SDS011;60699;48.946;8.412;2023-11-21T03:57:17;1.25;;;1.15;;
8349;SDS011;60699;48.946;8.412;2023-11-21T03:59:44;2.97;;;1.30;;
8349;SDS011;60699;48.946;8.412;2023-11-21T04:02:11;1.20;;;1.10;;
8349;SDS011;60699;48.946;8.412;2023-11-21T04:04:38;1.48;;;1.38;;
8349;SDS011;60699;48.946;8.412;2023-11-21T04:07:07;2.88;;;1.40;;
8349;SDS011;60699;48.946;8.412;2023-11-21T04:09:34;2.53;;;1.58;;
8349;SDS011;60699;48.946;8.412;2023-11-21T04:12:01;3.50;;;1.35;;
8349;SDS011;60699;48.946;8.412;2023-11-21T04:14:28;2.10;;;1.23;;
8349;SDS011;60699;48.946;8.412;2023-11-21T04:16:55;6.00;;;1.50;;
8349;SDS011;60699;48.946;8.412;2023-11-21T04:19:22;1.60;;;1.50;;
8349;SDS011;60699;48.946;8.412;2023-11-21T04:21:49;1.50;;;1.40;;
8349;SDS011;60699;48.946;8.412;2023-11-21T04:24:18;1.20;;;1.20;;
8349;SDS011;60699;48.946;8.412;2023-11-21T04:26:45;1.27;;;1.17;;
8349;SDS011;60699;48.946;8.412;2023-11-21T04:29:12;1.60;;;1.50;;
8349;SDS011;60699;48.946;8.412;2023-11-21T04:31:39;3.53;;;1.73;;
8349;SDS011;60699;48.946;8.412;2023-11-21T04:34:06;1.80;;;1.70;;
8349;SDS011;60699;48.946;8.412;2023-11-21T04:36:33;2.25;;;1.45;;
8349;SDS011;60699;48.946;8.412;2023-11-21T04:39:01;1.48;;;1.38;;
8349;SDS011;60699;48.946;8.412;2023-11-21T04:41:29;1.30;;;1.20;;
8349;SDS011;60699;48.946;8.412;2023-11-21T04:43:56;1.60;;;1.50;;
8349;SDS011;60699;48.946;8.412;2023-11-21T04:46:25;2.45;;;1.30;;
8349;SDS011;60699;48.946;8.412;2023-11-21T04:48:52;1.60;;;1.50;;
8349;SDS011;60699;48.946;8.412;2023-11-21T04:51:19;3.00;;;2.10;;
8349;SDS011;60699;48.946;8.412;2023-11-21T04:53:46;1.73;;;1.63;;
8349;SDS011;60699;48.946;8.412;2023-11-21T04:56:13;4.80;;;2.05;;
8349;SDS011;60699;48.946;8.412;2023-11-21T04:58:42;3.25;;;2.17;;
8349;SDS011;60699;48.946;8.412;2023-11-21T05:01:09;2.03;;;1.83;;
8349;SDS011;60699;48.946;8.412;2023-11-21T05:03:36;1.85;;;1.75;;
8349;SDS011;60699;48.946;8.412;2023-11-21T05:06:04;2.78;;;1.50;;
8349;SDS011;60699;48.946;8.412;2023-11-21T05:08:31;2.72;;;2.05;;
8349;SDS011;60699;48.946;8.412;2023-11-21T05:10:58;2.45;;;1.80;;
8349;SDS011;60699;48.946;8.412;2023-11-21T05:13:25;2.53;;;1.42;;
8349;SDS011;60699;48.946;8.412;2023-11-21T05:15:54;1.80;;;1.70;;
8349;SDS011;60699;48.946;8.412;2023-11-21T05:18:22;1.77;;;1.67;;
8349;SDS011;60699;48.946;8.412;2023-11-21T05:20:52;2.20;;;1.92;;
8349;SDS011;60699;48.946;8.412;2023-11-21T05:23:19;4.72;;;1.65;;
8349;SDS011;60699;48.946;8.412;2023-11-21T05:25:46;2.35;;;2.15;;
8349;SDS011;60699;48.946;8.412;2023-11-21T05:28:13;2.00;;;1.80;;
8349;SDS011;60699;48.946;8.412;2023-11-21T05:30:40;2.40;;;2.20;;
8349;SDS011;60699;48.946;8.412;2023-11-21T05:33:08;1.90;;;1.58;;
8349;SDS011;60699;48.946;8.412;2023-11-21T05:35:35;1.98;;;1.88;;
8349;SDS011;60699;48.946;8.412;2023-11-21T05:38:02;2.40;;;2.20;;
8349;SDS011;60699;48.946;8.412;2023-11-21T05:40:30;2.15;;;1.98;;
8349;SDS011;60699;48.946;8.412;2023-11-21T05:42:58;6.97;;;2.50;;
8349;SDS011;60699;48.946;8.412;2023-11-21T05:45:25;4.30;;;2.25;;
8349;SDS011;60699;48.946;8.412;2023-11-21T05:47:54;3.90;;;2.20;;
8349;SDS011;60699;48.946;8.412;2023-11-21T05:50:22;2.10;;;1.92;;
8349;SDS011;60699;48.946;8.412;2023-11-21T05:52:49;2.42;;;2.22;;
8349;SDS011;60699;48.946;8.412;2023-11-21T05:55:16;5.15;;;3.03;;
8349;SDS011;60699;48.946;8.412;2023-11-21T05:57:45;2.47;;;2.28;;
8349;SDS011;60699;48.946;8.412;2023-11-21T06:00:13;2.90;;;2.50;;
8349;SDS011;60699;48.946;8.412;2023-11-21T06:02:45;3.20;;;2.70;;
8349;SDS011;60699;48.946;8.412;2023-11-21T06:05:12;2.35;;;2.15;;
8349;SDS011;60699;48.946;8.412;2023-11-21T06:07:40;2.97;;;2.55;;
8349;SDS011;60699;48.946;8.412;2023-11-21T06:10:07;3.95;;;2.88;;
8349;SDS011;60699;48.946;8.412;2023-11-21T06:12:36;2.88;;;2.60;;
8349;SDS011;60699;48.946;8.412;2023-11-21T06:15:03;2.85;;;2.67;;
8349;SDS011;60699;48.946;8.412;2023-11-21T06:17:32;3.00;;;2.70;;
8349;SDS011;60699;48.946;8.412;2023-11-21T06:20:01;5.78;;;2.13;;
8349;SDS011;60699;48.946;8.412;2023-11-21T06:22:34;3.33;;;2.38;;
8349;SDS011;60699;48.946;8.412;2023-11-21T06:25:02;5.78;;;2.20;;
8349;SDS011;60699;48.946;8.412;2023-11-21T06:27:30;3.90;;;2.75;;
8349;SDS011;60699;48.946;8.412;2023-11-21T06:29:57;3.40;;;3.10;;
8349;SDS011;60699;48.946;8.412;2023-11-21T06:32:24;2.92;;;2.63;;
8349;SDS011;60699;48.946;8.412;2023-11-21T06:34:54;2.83;;;2.50;;
8349;SDS011;60699;48.946;8.412;2023-11-21T06:37:24;2.55;;;2.35;;
8349;SDS011;60699;48.946;8.412;2023-11-21T06:39:51;3.55;;;2.53;;
8349;SDS011;60699;48.946;8.412;2023-11-21T06:42:20;2.30;;;2.10;;
8349;SDS011;60699;48.946;8.412;2023-11-21T06:44:47;2.78;;;2.58;;
8349;SDS011;60699;48.946;8.412;2023-11-21T06:47:16;3.03;;;1.92;;
8349;SDS011;60699;48.946;8.412;2023-11-21T06:49:45;3.85;;;2.65;;
8349;SDS011;60699;48.946;8.412;2023-11-21T06:52:13;2.90;;;2.40;;
8349;SDS011;60699;48.946;8.412;2023-11-21T06:54:40;3.47;;;2.50;;
8349;SDS011;60699;48.946;8.412;2023-11-21T06:57:07;4.30;;;2.90;;
8349;SDS011;60699;48.946;8.412;2023-11-21T06:59:35;5.75;;;3.15;;
8349;SDS011;60699;48.946;8.412;2023-11-21T07:02:02;3.00;;;2.80;;
8349;SDS011;60699;48.946;8.412;2023-11-21T07:04:31;5.45;;;3.65;;
8349;SDS011;60699;48.946;8.412;2023-11-21T07:06:58;3.63;;;3.33;;
8349;SDS011;60699;48.946;8.412;2023-11-21T07:09:25;9.48;;;6.78;;
8349;SDS011;60699;48.946;8.412;2023-11-21T07:11:52;5.03;;;4.63;;
8349;SDS011;60699;48.946;8.412;2023-11-21T07:14:20;3.60;;;3.30;;
8349;SDS011;60699;48.946;8.412;2023-11-21T07:16:48;4.20;;;3.60;;
8349;SDS011;60699;48.946;8.412;2023-11-21T07:19:16;6.18;;;4.25;;
8349;SDS011;60699;48.946;8.412;2023-11-21T07:21:43;3.90;;;3.60;;
8349;SDS011;60699;48.946;8.412;2023-11-21T07:24:10;6.53;;;3.50;;
8349;SDS011;60699;48.946;8.412;2023-11-21T07:26:37;6.60;;;4.00;;
8349;SDS011;60699;48.946;8.412;2023-11-21T07:29:04;4.57;;;4.07;;
8349;SDS011;60699;48.946;8.412;2023-11-21T07:31:32;6.93;;;4.90;;
8349;SDS011;60699;48.946;8.412;2023-11-21T07:34:01;6.03;;;3.97;;
8349;SDS011;60699;48.946;8.412;2023-11-21T07:36:28;5.38;;;4.88;;
8349;SDS011;60699;48.946;8.412;2023-11-21T07:38:55;6.75;;;4.20;;
8349;SDS011;60699;48.946;8.412;2023-11-21T07:41:22;5.38;;;4.63;;
8349;SDS011;60699;48.946;8.412;2023-11-21T07:43:49;5.07;;;4.57;;
8349;SDS011;60699;48.946;8.412;2023-11-21T07:46:16;5.53;;;4.78;;
8349;SDS011;60699;48.946;8.412;2023-11-21T07:48:45;5.32;;;4.65;;
8349;SDS011;60699;48.946;8.412;2023-11-21T07:51:13;5.15;;;4.65;;
8349;SDS011;60699;48.946;8.412;2023-11-21T07:53:40;5.70;;;4.53;;
8349;SDS011;60699;48.946;8.412;2023-11-21T07:56:08;7.43;;;4.63;;
8349;SDS011;60699;48.946;8.412;2023-11-21T07:58:35;6.18;;;4.15;;
8349;SDS011;60699;48.946;8.412;2023-11-21T08:01:03;7.20;;;6.13;;
8349;SDS011;60699;48.946;8.412;2023-11-21T08:03:30;5.97;;;5.03;;
8349;SDS011;60699;48.946;8.412;2023-11-21T08:05:57;6.20;;;4.47;;
8349;SDS011;60699;48.946;8.412;2023-11-21T08:08:26;9.93;;;5.72;;
8349;SDS011;60699;48.946;8.412;2023-11-21T08:10:53;5.00;;;4.60;;
8349;SDS011;60699;48.946;8.412;2023-11-21T08:13:22;4.93;;;4.15;;
8349;SDS011;60699;48.946;8.412;2023-11-21T08:15:49;5.05;;;4.45;;
8349;SDS011;60699;48.946;8.412;2023-11-21T08:18:16;4.55;;;4.00;;
8349;SDS011;60699;48.946;8.412;2023-11-21T08:20:43;3.95;;;3.65;;
8349;SDS011;60699;48.946;8.412;2023-11-21T08:23:13;6.13;;;4.55;;
8349;SDS011;60699;48.946;8.412;2023-11-21T08:25:42;5.28;;;3.20;;
8349;SDS011;60699;48.946;8.412;2023-11-21T08:28:09;5.60;;;4.53;;
8349;SDS011;60699;48.946;8.412;2023-11-21T08:30:36;3.80;;;3.50;;
8349;SDS011;60699;48.946;8.412;2023-11-21T08:33:04;6.72;;;3.95;;
8349;SDS011;60699;48.946;8.412;2023-11-21T08:35:31;5.32;;;3.78;;
8349;SDS011;60699;48.946;8.412;2023-11-21T08:37:58;4.85;;;3.85;;
8349;SDS011;60699;48.946;8.412;2023-11-21T08:40:26;5.00;;;4.05;;
8349;SDS011;60699;48.946;8.412;2023-11-21T08:42:54;4.93;;;4.20;;
8349;SDS011;60699;48.946;8.412;2023-11-21T08:45:23;5.68;;;3.95;;
8349;SDS011;60699;48.946;8.412;2023-11-21T08:47:51;4.93;;;4.22;;
8349;SDS011;60699;48.946;8.412;2023-11-21T08:50:18;5.75;;;4.30;;
8349;SDS011;60699;48.946;8.412;2023-11-21T08:52:45;5.15;;;3.85;;
8349;SDS011;60699;48.946;8.412;2023-11-21T08:55:14;5.32;;;3.88;;
8349;SDS011;60699;48.946;8.412;2023-11-21T08:57:43;4.38;;;3.97;;
8349;SDS011;60699;48.946;8.412;2023-11-21T09:00:12;5.95;;;4.07;;
8349;SDS011;60699;48.946;8.412;2023-11-21T09:02:41;5.72;;;4.38;;
8349;SDS011;60699;48.946;8.412;2023-11-21T09:05:10;5.40;;;4.43;;
8349;SDS011;60699;48.946;8.412;2023-11-21T09:07:38;4.53;;;3.95;;
8349;SDS011;60699;48.946;8.412;2023-11-21T09:10:06;4.53;;;4.13;;
8349;SDS011;60699;48.946;8.412;2023-11-21T09:12:34;7.75;;;5.68;;
8349;SDS011;60699;48.946;8.412;2023-11-21T09:15:03;6.95;;;5.95;;
8349;SDS011;60699;48.946;8.412;2023-11-21T09:17:32;7.32;;;5.95;;
8349;SDS011;60699;48.946;8.412;2023-11-21T09:20:00;8.90;;;7.07;;
8349;SDS011;60699;48.946;8.412;2023-11-21T09:22:28;8.38;;;5.88;;
8349;SDS011;60699;48.946;8.412;2023-11-21T09:24:56;11.27;;;6.50;;
8349;SDS011;60699;48.946;8.412;2023-11-21T09:27:23;10.35;;;7.10;;
8349;SDS011;60699;48.946;8.412;2023-11-21T09:29:51;11.93;;;7.10;;
8349;SDS011;60699;48.946;8.412;2023-11-21T09:32:19;9.95;;;7.35;;
8349;SDS011;60699;48.946;8.412;2023-11-21T09:34:48;12.82;;;7.40;;
8349;SDS011;60699;48.946;8.412;2023-11-21T09:37:15;11.48;;;7.90;;
8349;SDS011;60699;48.946;8.412;2023-11-21T09:39:42;9.65;;;6.85;;
8349;SDS011;60699;48.946;8.412;2023-11-21T09:42:10;7.63;;;5.75;;
8349;SDS011;60699;48.946;8.412;2023-11-21T09:44:41;11.80;;;6.80;;
8349;SDS011;60699;48.946;8.412;2023-11-21T09:47:10;8.95;;;6.63;;
8349;SDS011;60699;48.946;8.412;2023-11-21T09:49:41;8.55;;;6.30;;
8349;SDS011;60699;48.946;8.412;2023-11-21T09:52:13;12.00;;;7.47;;
8349;SDS011;60699;48.946;8.412;2023-11-21T09:54:42;12.55;;;7.78;;
8349;SDS011;60699;48.946;8.412;2023-11-21T09:57:10;10.30;;;7.32;;
8349;SDS011;60699;48.946;8.412;2023-11-21T09:59:37;12.73;;;8.82;;
8349;SDS011;60699;48.946;8.412;2023-11-21T10:02:04;12.35;;;7.85;;
8349;SDS011;60699;48.946;8.412;2023-11-21T10:04:31;13.82;;;8.98;;
8349;SDS011;60699;48.946;8.412;2023-11-21T10:06:59;14.98;;;8.43;;
8349;SDS011;60699;48.946;8.412;2023-11-21T10:09:28;9.90;;;7.65;;
8349;SDS011;60699;48.946;8.412;2023-11-21T10:11:57;10.90;;;6.55;;
8349;SDS011;60699;48.946;8.412;2023-11-21T10:14:25;13.95;;;8.27;;
8349;SDS011;60699;48.946;8.412;2023-11-21T10:16:54;12.55;;;8.77;;
8349;SDS011;60699;48.946;8.412;2023-11-21T10:19:21;12.13;;;7.95;;
8349;SDS011;60699;48.946;8.412;2023-11-21T10:21:49;12.00;;;8.32;;
8349;SDS011;60699;48.946;8.412;2023-11-21T10:24:17;13.63;;;7.97;;
8349;SDS011;60699;48.946;8.412;2023-11-21T10:26:45;11.55;;;7.47;;
8349;SDS011;60699;48.946;8.412;2023-11-21T10:29:13;11.93;;;7.72;;
8349;SDS011;60699;48.946;8.412;2023-11-21T10:31:41;13.38;;;8.18;;
8349;SDS011;60699;48.946;8.412;2023-11-21T10:34:13;13.82;;;7.97;;
8349;SDS011;60699;48.946;8.412;2023-11-21T10:36:41;11.15;;;7.00;;
8349;SDS011;60699;48.946;8.412;2023-11-21T10:39:08;10.98;;;7.68;;
8349;SDS011;60699;48.946;8.412;2023-11-21T10:41:35;12.38;;;7.93;;
8349;SDS011;60699;48.946;8.412;2023-11-21T10:44:04;11.95;;;7.28;;
8349;SDS011;60699;48.946;8.412;2023-11-21T10:46:32;12.32;;;7.90;;
8349;SDS011;60699;48.946;8.412;2023-11-21T10:49:00;15.10;;;7.65;;
8349;SDS011;60699;48.946;8.412;2023-11-21T10:51:27;10.68;;;7.05;;
8349;SDS011;60699;48.946;8.412;2023-11-21T10:53:54;13.70;;;8.30;;
8349;SDS011;60699;48.946;8.412;2023-11-21T10:56:23;10.55;;;7.47;;
8349;SDS011;60699;48.946;8.412;2023-11-21T10:58:50;8.65;;;6.30;;
8349;SDS011;60699;48.946;8.412;2023-11-21T11:01:19;9.32;;;7.35;;
8349;SDS011;60699;48.946;8.412;2023-11-21T11:03:47;8.20;;;6.32;;
8349;SDS011;60699;48.946;8.412;2023-11-21T11:06:14;8.88;;;6.75;;
8349;SDS011;60699;48.946;8.412;2023-11-21T11:08:42;7.03;;;5.78;;
8349;SDS011;60699;48.946;8.412;2023-11-21T11:11:10;9.02;;;4.38;;
8349;SDS011;60699;48.946;8.412;2023-11-21T11:13:38;8.68;;;6.10;;
8349;SDS011;60699;48.946;8.412;2023-11-21T11:16:10;9.20;;;6.15;;
8349;SDS011;60699;48.946;8.412;2023-11-21T11:18:43;10.52;;;7.30;;
8349;SDS011;60699;48.946;8.412;2023-11-21T11:21:15;8.50;;;6.57;;
8349;SDS011;60699;48.946;8.412;2023-11-21T11:23:49;7.10;;;5.75;;
8349;SDS011;60699;48.946;8.412;2023-11-21T11:26:20;7.13;;;5.38;;
8349;SDS011;60699;48.946;8.412;2023-11-21T11:28:54;10.88;;;6.13;;
8349;SDS011;60699;48.946;8.412;2023-11-21T11:31:27;9.82;;;5.93;;
8349;SDS011;60699;48.946;8.412;2023-11-21T11:34:01;8.82;;;5.53;;
8349;SDS011;60699;48.946;8.412;2023-11-21T11:36:36;8.50;;;6.97;;
8349;SDS011;60699;48.946;8.412;2023-11-21T11:41:46;7.03;;;5.97;;
8349;SDS011;60699;48.946;8.412;2023-11-21T11:46:57;10.85;;;6.57;;
8349;SDS011;60699;48.946;8.412;2023-11-21T11:49:26;10.88;;;6.75;;
8349;SDS011;60699;48.946;8.412;2023-11-21T11:54:37;7.70;;;5.78;;
8349;SDS011;60699;48.946;8.412;2023-11-21T11:57:04;8.65;;;6.13;;
8349;SDS011;60699;48.946;8.412;2023-11-21T11:59:37;9.68;;;6.90;;
8349;SDS011;60699;48.946;8.412;2023-11-21T12:02:24;9.38;;;7.28;;
8349;SDS011;60699;48.946;8.412;2023-11-21T12:04:55;8.40;;;6.35;;
8349;SDS011;60699;48.946;8.412;2023-11-21T12:07:22;9.05;;;6.38;;
8349;SDS011;60699;48.946;8.412;2023-11-21T12:09:50;12.77;;;7.10;;
8349;SDS011;60699;48.946;8.412;2023-11-21T12:12:17;7.95;;;6.07;;
8349;SDS011;60699;48.946;8.412;2023-11-21T12:14:44;9.18;;;7.25;;
8349;SDS011;60699;48.946;8.412;2023-11-21T12:17:11;7.63;;;5.55;;
8349;SDS011;60699;48.946;8.412;2023-11-21T12:19:38;9.13;;;7.00;;
8349;SDS011;60699;48.946;8.412;2023-11-21T12:22:07;9.32;;;7.03;;
8349;SDS011;60699;48.946;8.412;2023-11-21T12:24:34;10.85;;;7.13;;
8349;SDS011;60699;48.946;8.412;2023-11-21T12:27:01;13.80;;;7.50;;
8349;SDS011;60699;48.946;8.412;2023-11-21T12:29:28;10.40;;;8.00;;
8349;SDS011;60699;48.946;8.412;2023-11-21T12:31:56;14.90;;;9.05;;
8349;SDS011;60699;48.946;8.412;2023-11-21T12:34:23;9.68;;;7.15;;
8349;SDS011;60699;48.946;8.412;2023-11-21T12:36:50;10.68;;;7.70;;
8349;SDS011;60699;48.946;8.412;2023-11-21T12:39:21;7.60;;;6.47;;
8349;SDS011;60699;48.946;8.412;2023-11-21T12:41:48;9.32;;;6.60;;
8349;SDS011;60699;48.946;8.412;2023-11-21T12:44:15;14.73;;;7.75;;
8349;SDS011;60699;48.946;8.412;2023-11-21T12:46:43;7.50;;;6.03;;
8349;SDS011;60699;48.946;8.412;2023-11-21T12:49:11;11.93;;;7.70;;
8349;SDS011;60699;48.946;8.412;2023-11-21T12:51:42;10.98;;;7.22;;
8349;SDS011;60699;48.946;8.412;2023-11-21T12:54:09;9.60;;;5.85;;
8349;SDS011;60699;48.946;8.412;2023-11-21T12:56:39;7.28;;;6.22;;
8349;SDS011;60699;48.946;8.412;2023-11-21T12:59:06;7.70;;;6.40;;
8349;SDS011;60699;48.946;8.412;2023-11-21T13:01:38;6.88;;;6.18;;
8349;SDS011;60699;48.946;8.412;2023-11-21T13:04:08;7.65;;;5.93;;
8349;SDS011;60699;48.946;8.412;2023-11-21T13:06:36;10.43;;;6.85;;
8349;SDS011;60699;48.946;8.412;2023-11-21T13:09:06;9.50;;;6.90;;
8349;SDS011;60699;48.946;8.412;2023-11-21T13:11:35;8.50;;;7.57;;
8349;SDS011;60699;48.946;8.412;2023-11-21T13:14:07;11.13;;;7.82;;
8349;SDS011;60699;48.946;8.412;2023-11-21T13:16:36;10.20;;;7.82;;
8349;SDS011;60699;48.946;8.412;2023-11-21T13:19:04;9.68;;;7.05;;
8349;SDS011;60699;48.946;8.412;2023-11-21T13:21:31;8.48;;;6.18;;
8349;SDS011;60699;48.946;8.412;2023-11-21T13:23:58;11.73;;;6.93;;
8349;SDS011;60699;48.946;8.412;2023-11-21T13:26:25;7.45;;;6.75;;
8349;SDS011;60699;48.946;8.412;2023-11-21T13:28:52;12.30;;;7.45;;
8349;SDS011;60699;48.946;8.412;2023-11-21T13:31:21;11.48;;;7.85;;
8349;SDS011;60699;48.946;8.412;2023-11-21T13:33:52;8.73;;;7.18;;
8349;SDS011;60699;48.946;8.412;2023-11-21T13:36:23;11.50;;;7.53;;
8349;SDS011;60699;48.946;8.412;2023-11-21T13:38:55;8.57;;;6.18;;
8349;SDS011;60699;48.946;8.412;2023-11-21T13:41:23;9.35;;;6.43;;
8349;SDS011;60699;48.946;8.412;2023-11-21T13:43:55;8.63;;;7.20;;
8349;SDS011;60699;48.946;8.412;2023-11-21T13:46:30;7.43;;;6.30;;
8349;SDS011;60699;48.946;8.412;2023-11-21T13:52:00;9.20;;;7.28;;
8349;SDS011;60699;48.946;8.412;2023-11-21T13:54:28;8.05;;;6.32;;
8349;SDS011;60699;48.946;8.412;2023-11-21T13:56:56;6.25;;;4.97;;
8349;SDS011;60699;48.946;8.412;2023-11-21T13:59:24;7.13;;;5.95;;
8349;SDS011;60699;48.946;8.412;2023-11-21T14:01:56;8.68;;;6.70;;
8349;SDS011;60699;48.946;8.412;2023-11-21T14:04:24;6.60;;;5.90;;
8349;SDS011;60699;48.946;8.412;2023-11-21T14:07:11;7.50;;;5.65;;
8349;SDS011;60699;48.946;8.412;2023-11-21T14:09:50;5.88;;;5.30;;
8349;SDS011;60699;48.946;8.412;2023-11-21T14:12:18;6.60;;;5.93;;
8349;SDS011;60699;48.946;8.412;2023-11-21T14:14:45;6.57;;;5.55;;
8349;SDS011;60699;48.946;8.412;2023-11-21T14:17:14;7.18;;;5.95;;
8349;SDS011;60699;48.946;8.412;2023-11-21T14:19:41;8.95;;;5.13;;
8349;SDS011;60699;48.946;8.412;2023-11-21T14:22:09;6.28;;;5.68;;
8349;SDS011;60699;48.946;8.412;2023-11-21T14:24:36;5.47;;;4.60;;
8349;SDS011;60699;48.946;8.412;2023-11-21T14:27:08;9.38;;;5.20;;
8349;SDS011;60699;48.946;8.412;2023-11-21T14:29:36;4.50;;;4.10;;
8349;SDS011;60699;48.946;8.412;2023-11-21T14:32:08;7.90;;;5.22;;
8349;SDS011;60699;48.946;8.412;2023-11-21T14:34:37;6.80;;;5.68;;
8349;SDS011;60699;48.946;8.412;2023-11-21T14:37:05;5.00;;;4.57;;
8349;SDS011;60699;48.946;8.412;2023-11-21T14:39:33;7.75;;;5.38;;
8349;SDS011;60699;48.946;8.412;2023-11-21T14:42:05;6.68;;;5.35;;
8349;SDS011;60699;48.946;8.412;2023-11-21T14:44:33;6.97;;;4.40;;
8349;SDS011;60699;48.946;8.412;2023-11-21T14:47:03;8.63;;;5.18;;
8349;SDS011;60699;48.946;8.412;2023-11-21T14:49:40;6.45;;;5.07;;
8349;SDS011;60699;48.946;8.412;2023-11-21T14:52:17;5.90;;;5.40;;
8349;SDS011;60699;48.946;8.412;2023-11-21T14:54:58;6.60;;;5.22;;
8349;SDS011;60699;48.946;8.412;2023-11-21T14:57:45;5.18;;;4.50;;
8349;SDS011;60699;48.946;8.412;2023-11-21T15:00:15;5.53;;;4.97;;
8349;SDS011;60699;48.946;8.412;2023-11-21T15:03:03;7.50;;;5.47;;
8349;SDS011;60699;48.946;8.412;2023-11-21T15:05:30;8.68;;;5.72;;
8349;SDS011;60699;48.946;8.412;2023-11-21T15:08:00;6.63;;;5.65;;
8349;SDS011;60699;48.946;8.412;2023-11-21T15:10:38;5.65;;;5.07;;
8349;SDS011;60699;48.946;8.412;2023-11-21T15:13:11;8.75;;;5.88;;
8349;SDS011;60699;48.946;8.412;2023-11-21T15:15:38;6.32;;;5.07;;
8349;SDS011;60699;48.946;8.412;2023-11-21T15:18:05;7.40;;;6.00;;